createdAt,value
2022-08-29T00:01:23.822Z,6.60
2022-08-29T00:03:51.493Z,7.10
2022-08-29T00:06:19.090Z,6.50
2022-08-29T00:08:46.660Z,6.63
2022-08-29T00:11:14.527Z,7.67
2022-08-29T00:13:43.591Z,7.70
2022-08-29T00:16:11.309Z,7.63
2022-08-29T00:18:38.958Z,6.40
2022-08-29T00:21:06.883Z,7.03
2022-08-29T00:23:34.883Z,7.27
2022-08-29T00:26:02.727Z,7.40
2022-08-29T00:28:30.309Z,8.00
2022-08-29T00:30:59.261Z,7.90
2022-08-29T00:33:26.871Z,7.87
2022-08-29T00:35:54.827Z,8.07
2022-08-29T00:38:27.682Z,8.17
2022-08-29T00:40:56.724Z,8.03
2022-08-29T00:43:25.475Z,7.90
2022-08-29T00:45:57.200Z,7.83
2022-08-29T00:48:26.203Z,7.17
2022-08-29T00:50:55.087Z,8.47
2022-08-29T00:53:27.254Z,8.63
2022-08-29T00:55:55.028Z,7.50
2022-08-29T00:58:23.812Z,7.10
2022-08-29T01:00:52.220Z,7.63
2022-08-29T01:03:19.963Z,7.37
2022-08-29T01:05:49.366Z,7.20
2022-08-29T01:08:17.220Z,6.93
2022-08-29T01:11:02.319Z,7.57
2022-08-29T01:13:33.279Z,7.20
2022-08-29T01:16:01.903Z,7.27
2022-08-29T01:18:30.287Z,7.37
2022-08-29T01:21:02.831Z,7.17
2022-08-29T01:23:34.154Z,8.27
2022-08-29T01:26:03.841Z,7.03
2022-08-29T01:28:32.618Z,6.73
2022-08-29T01:31:01.850Z,7.00
2022-08-29T01:33:35.947Z,6.70
2022-08-29T01:36:03.704Z,7.00
2022-08-29T01:38:32.326Z,7.53
2022-08-29T01:41:00.214Z,6.53
2022-08-29T01:43:30.179Z,6.53
2022-08-29T01:45:58.496Z,7.27
2022-08-29T01:48:26.183Z,7.47
2022-08-29T01:50:53.815Z,7.27
2022-08-29T01:53:21.391Z,8.00
2022-08-29T01:55:49.008Z,7.70
2022-08-29T01:58:16.900Z,17.70
2022-08-29T02:00:45.934Z,7.70
2022-08-29T02:03:13.578Z,8.13
2022-08-29T02:05:41.148Z,8.57
2022-08-29T02:08:08.728Z,8.27
2022-08-29T02:10:36.670Z,7.20
2022-08-29T02:13:05.202Z,7.73
2022-08-29T02:15:32.961Z,7.73
2022-08-29T02:18:01.936Z,8.30
2022-08-29T02:20:29.625Z,8.03
2022-08-29T02:22:57.216Z,8.27
2022-08-29T02:25:42.730Z,7.67
2022-08-29T02:28:11.927Z,7.03
2022-08-29T02:30:39.749Z,7.63
2022-08-29T02:33:08.756Z,7.40
2022-08-29T02:35:39.857Z,7.70
2022-08-29T02:38:10.461Z,7.07
2022-08-29T02:40:38.102Z,6.93
2022-08-29T02:43:06.191Z,7.40
2022-08-29T02:45:34.171Z,7.70
2022-08-29T02:48:01.738Z,6.67
2022-08-29T02:50:30.979Z,7.70
2022-08-29T02:52:58.618Z,7.83
2022-08-29T02:55:26.560Z,7.60
2022-08-29T02:57:54.443Z,7.33
2022-08-29T03:00:23.229Z,7.07
2022-08-29T03:02:50.812Z,6.80
2022-08-29T03:05:20.344Z,8.10
2022-08-29T03:07:51.100Z,7.60
2022-08-29T03:10:18.847Z,7.73
2022-08-29T03:12:46.972Z,8.70
2022-08-29T03:15:15.103Z,8.20
2022-08-29T03:17:42.716Z,8.07
2022-08-29T03:20:11.298Z,8.23
2022-08-29T03:22:39.688Z,7.67
2022-08-29T03:25:10.191Z,7.80
2022-08-29T03:27:37.811Z,7.10
2022-08-29T03:30:05.956Z,7.33
2022-08-29T03:32:33.587Z,8.13
2022-08-29T03:35:01.499Z,7.83
2022-08-29T03:37:29.272Z,7.70
2022-08-29T03:39:56.923Z,7.53
2022-08-29T03:42:25.979Z,7.90
2022-08-29T03:44:53.588Z,7.37
2022-08-29T03:47:21.168Z,8.07
2022-08-29T03:49:48.956Z,7.20
2022-08-29T03:52:16.591Z,7.40
2022-08-29T03:54:44.183Z,8.27
2022-08-29T03:57:11.847Z,7.80
2022-08-29T03:59:40.822Z,9.03
2022-08-29T04:02:08.569Z,8.90
2022-08-29T04:04:53.408Z,7.67
2022-08-29T04:07:20.996Z,7.40
2022-08-29T04:09:48.546Z,8.03
2022-08-29T04:12:16.315Z,7.33
2022-08-29T04:14:45.258Z,8.13
2022-08-29T04:17:12.867Z,8.57
2022-08-29T04:19:40.473Z,7.50
2022-08-29T04:22:08.104Z,7.50
2022-08-29T04:24:36.100Z,7.70
2022-08-29T04:27:03.784Z,7.90
2022-08-29T04:29:31.390Z,8.70
2022-08-29T04:32:00.350Z,8.10
2022-08-29T04:34:28.287Z,7.63
2022-08-29T04:36:55.908Z,7.73
2022-08-29T04:39:23.471Z,7.60
2022-08-29T04:41:51.031Z,7.50
2022-08-29T04:44:18.625Z,7.70
2022-08-29T04:46:47.674Z,7.53
2022-08-29T04:49:17.193Z,7.67
2022-08-29T04:51:44.768Z,7.07
2022-08-29T04:54:12.376Z,7.17
2022-08-29T04:56:44.345Z,7.20
2022-08-29T04:59:15.707Z,7.20
2022-08-29T05:01:44.065Z,7.90
2022-08-29T05:04:14.497Z,7.47
2022-08-29T05:06:43.745Z,7.10
2022-08-29T05:09:11.314Z,7.57
2022-08-29T05:11:40.091Z,8.23
2022-08-29T05:14:07.677Z,9.10
2022-08-29T05:16:37.174Z,8.17
2022-08-29T05:19:05.797Z,8.37
2022-08-29T05:21:35.539Z,8.63
2022-08-29T05:24:07.009Z,8.70
2022-08-29T05:26:35.995Z,9.00
2022-08-29T05:29:04.058Z,8.80
2022-08-29T05:31:37.390Z,8.43
2022-08-29T05:34:14.054Z,8.27
2022-08-29T05:36:53.720Z,9.30
2022-08-29T05:39:22.720Z,8.67
2022-08-29T05:41:50.308Z,8.27
2022-08-29T05:44:18.019Z,10.60
2022-08-29T05:46:45.705Z,7.87
2022-08-29T05:49:13.450Z,7.97
2022-08-29T05:51:42.352Z,8.30
2022-08-29T05:54:10.088Z,7.93
2022-08-29T05:56:39.253Z,8.37
2022-08-29T05:59:06.863Z,8.10
2022-08-29T06:01:34.963Z,8.63
2022-08-29T06:04:02.959Z,8.47
2022-08-29T06:06:31.037Z,8.00
2022-08-29T06:08:59.330Z,8.07
2022-08-29T06:11:27.982Z,8.17
2022-08-29T06:13:57.261Z,8.07
2022-08-29T06:16:25.644Z,7.57
2022-08-29T06:18:53.561Z,7.83
2022-08-29T06:21:21.638Z,8.40
2022-08-29T06:23:49.353Z,9.30
2022-08-29T06:26:17.217Z,7.50
2022-08-29T06:28:46.273Z,7.20
2022-08-29T06:31:16.246Z,7.60
2022-08-29T06:33:43.863Z,7.80
2022-08-29T06:36:11.852Z,8.00
2022-08-29T06:38:39.436Z,7.53
2022-08-29T06:41:07.699Z,8.43
2022-08-29T06:43:35.508Z,8.10
2022-08-29T06:46:03.202Z,8.03
2022-08-29T06:48:32.218Z,10.13
2022-08-29T06:51:01.887Z,8.93
2022-08-29T06:53:32.143Z,8.97
2022-08-29T06:56:04.596Z,8.67
2022-08-29T06:58:33.079Z,10.53
2022-08-29T07:01:05.877Z,10.03
2022-08-29T07:03:34.987Z,10.40
2022-08-29T07:06:02.713Z,9.67
2022-08-29T07:08:30.368Z,10.50
2022-08-29T07:10:59.357Z,9.90
2022-08-29T07:13:26.928Z,10.83
2022-08-29T07:15:54.651Z,13.27
2022-08-29T07:18:22.416Z,14.53
2022-08-29T07:20:51.355Z,13.10
2022-08-29T07:23:19.127Z,14.23
2022-08-29T07:25:46.708Z,12.70
2022-08-29T07:28:14.485Z,11.50
2022-08-29T07:30:43.054Z,10.57
2022-08-29T07:33:10.683Z,9.70
2022-08-29T07:35:38.273Z,9.97
2022-08-29T07:38:07.580Z,9.80
2022-08-29T07:40:35.256Z,9.83
2022-08-29T07:43:04.527Z,9.93
2022-08-29T07:45:32.117Z,10.13
2022-08-29T07:47:59.741Z,10.23
2022-08-29T07:50:27.432Z,10.77
2022-08-29T07:52:56.548Z,10.53
2022-08-29T07:55:25.515Z,11.30
2022-08-29T07:57:53.517Z,10.97
2022-08-29T08:00:21.553Z,11.37
2022-08-29T08:02:49.198Z,10.83
2022-08-29T08:05:16.945Z,10.50
2022-08-29T08:07:44.540Z,10.10
2022-08-29T08:10:16.991Z,9.20
2022-08-29T08:12:46.792Z,9.63
2022-08-29T08:15:14.479Z,9.90
2022-08-29T08:17:44.136Z,9.63
2022-08-29T08:20:12.939Z,9.40
2022-08-29T08:22:40.816Z,9.07
2022-08-29T08:25:08.779Z,11.93
2022-08-29T08:27:40.648Z,9.30
2022-08-29T08:30:13.223Z,8.70
2022-08-29T08:32:46.125Z,8.83
2022-08-29T08:35:16.076Z,8.80
2022-08-29T08:37:44.367Z,8.60
2022-08-29T08:40:19.630Z,9.30
2022-08-29T08:42:47.483Z,9.27
2022-08-29T08:45:17.569Z,8.00
2022-08-29T08:47:47.402Z,9.43
2022-08-29T08:50:18.218Z,8.90
2022-08-29T08:52:50.520Z,8.63
2022-08-29T08:55:28.434Z,8.90
2022-08-29T08:58:00.678Z,8.20
2022-08-29T09:00:31.595Z,7.90
2022-08-29T09:03:03.542Z,8.37
2022-08-29T09:05:44.053Z,10.67
2022-08-29T09:08:19.496Z,7.87
2022-08-29T09:10:50.066Z,7.07
2022-08-29T09:13:23.569Z,7.37
2022-08-29T09:15:54.147Z,7.40
2022-08-29T09:18:25.277Z,7.70
2022-08-29T09:20:54.100Z,7.80
2022-08-29T09:23:25.685Z,7.87
2022-08-29T09:25:53.251Z,7.17
2022-08-29T09:28:21.043Z,6.80
2022-08-29T09:31:03.488Z,7.60
2022-08-29T09:33:41.022Z,7.43
2022-08-29T09:36:13.496Z,7.07
2022-08-29T09:38:41.132Z,7.10
2022-08-29T09:41:10.537Z,7.07
2022-08-29T09:43:50.211Z,7.40
2022-08-29T09:46:23.129Z,7.37
2022-08-29T09:48:53.295Z,6.50
2022-08-29T09:51:24.249Z,7.43
2022-08-29T09:53:51.919Z,6.47
2022-08-29T09:56:22.518Z,6.60
2022-08-29T09:58:58.371Z,7.30
2022-08-29T10:01:28.220Z,7.27
2022-08-29T10:03:58.726Z,7.40
2022-08-29T10:06:28.277Z,7.23
2022-08-29T10:08:57.448Z,7.50
2022-08-29T10:11:29.000Z,6.57
2022-08-29T10:13:57.600Z,6.70
2022-08-29T10:16:30.346Z,7.27
2022-08-29T10:19:02.121Z,6.70
2022-08-29T10:21:33.684Z,6.07
2022-08-29T10:24:05.114Z,6.27
2022-08-29T10:26:37.401Z,6.50
2022-08-29T10:29:09.640Z,6.40
2022-08-29T10:31:39.861Z,6.43
2022-08-29T10:34:18.324Z,6.47
2022-08-29T10:36:51.031Z,6.60
2022-08-29T10:39:22.855Z,6.23
2022-08-29T10:41:56.928Z,6.10
2022-08-29T10:44:30.071Z,6.53
2022-08-29T10:47:04.071Z,6.23
2022-08-29T10:49:38.408Z,6.20
2022-08-29T10:52:12.344Z,6.20
2022-08-29T10:54:46.110Z,5.73
2022-08-29T10:57:16.788Z,5.07
2022-08-29T10:59:51.388Z,5.20
2022-08-29T11:02:24.361Z,5.37
2022-08-29T11:04:56.572Z,5.35
2022-08-29T11:07:28.487Z,4.90
2022-08-29T11:09:58.376Z,5.13
2022-08-29T11:12:29.311Z,4.32
2022-08-29T11:14:58.815Z,4.40
2022-08-29T11:17:30.665Z,4.32
2022-08-29T11:20:04.267Z,4.55
2022-08-29T11:22:34.537Z,4.57
2022-08-29T11:25:04.776Z,4.70
2022-08-29T11:27:36.444Z,4.70
2022-08-29T11:30:06.903Z,4.40
2022-08-29T11:32:39.921Z,4.60
2022-08-29T11:35:12.956Z,4.75
2022-08-29T11:37:55.404Z,5.00
2022-08-29T11:43:26.196Z,4.97
2022-08-29T11:45:57.785Z,4.55
2022-08-29T11:48:31.479Z,4.07
2022-08-29T11:51:00.663Z,4.15
2022-08-29T11:53:35.032Z,4.30
2022-08-29T11:56:22.939Z,4.80
2022-08-29T11:58:51.027Z,4.03
2022-08-29T12:01:37.807Z,4.20
2022-08-29T12:04:05.652Z,4.60
2022-08-29T12:06:51.092Z,3.80
2022-08-29T12:09:26.369Z,4.43
2022-08-29T12:12:13.991Z,4.40
2022-08-29T12:14:42.824Z,3.75
2022-08-29T12:17:12.299Z,3.50
2022-08-29T12:19:48.079Z,3.83
2022-08-29T12:22:34.404Z,3.75
2022-08-29T12:25:23.648Z,3.95
2022-08-29T12:28:06.065Z,4.32
2022-08-29T12:30:36.399Z,4.13
2022-08-29T12:33:09.037Z,4.03
2022-08-29T12:35:57.075Z,3.60
2022-08-29T12:38:31.165Z,3.88
2022-08-29T12:41:05.772Z,3.55
2022-08-29T12:43:36.044Z,3.90
2022-08-29T12:46:04.956Z,3.67
2022-08-29T12:48:34.181Z,3.80
2022-08-29T12:51:02.420Z,3.38
2022-08-29T12:53:33.176Z,3.83
2022-08-29T12:56:03.090Z,3.85
2022-08-29T12:58:34.296Z,3.80
2022-08-29T13:01:02.843Z,3.83
2022-08-29T13:03:30.484Z,3.80
2022-08-29T13:06:03.687Z,3.72
2022-08-29T13:08:33.086Z,3.83
2022-08-29T13:11:01.931Z,4.03
2022-08-29T13:13:30.399Z,4.40
2022-08-29T13:16:01.680Z,4.20
2022-08-29T13:18:29.784Z,3.80
2022-08-29T13:21:05.910Z,4.70
2022-08-29T13:23:34.371Z,4.15
2022-08-29T13:26:03.593Z,4.78
2022-08-29T13:28:36.897Z,4.70
2022-08-29T13:31:21.115Z,4.45
2022-08-29T13:34:04.880Z,3.80
2022-08-29T13:36:37.489Z,4.15
2022-08-29T13:39:29.202Z,4.47
2022-08-29T13:42:17.534Z,4.20
2022-08-29T13:44:53.883Z,4.20
2022-08-29T13:47:22.985Z,4.22
2022-08-29T13:49:52.675Z,4.28
2022-08-29T13:52:20.448Z,4.60
2022-08-29T13:54:48.010Z,3.90
2022-08-29T13:57:19.285Z,4.00
2022-08-29T13:59:46.945Z,4.30
2022-08-29T14:02:15.660Z,4.10
2022-08-29T14:04:47.846Z,3.83
2022-08-29T14:07:19.672Z,4.18
2022-08-29T14:09:47.699Z,3.90
2022-08-29T14:12:15.623Z,3.60
2022-08-29T14:14:43.265Z,3.88
2022-08-29T14:17:11.238Z,4.93
2022-08-29T14:19:46.522Z,3.60
2022-08-29T14:22:14.454Z,3.85
2022-08-29T14:24:51.208Z,3.75
2022-08-29T14:27:19.063Z,6.00
2022-08-29T14:29:46.704Z,3.40
2022-08-29T14:32:14.300Z,3.00
2022-08-29T14:34:41.952Z,3.30
2022-08-29T14:37:18.668Z,3.40
2022-08-29T14:39:49.682Z,3.58
2022-08-29T14:42:18.145Z,3.10
2022-08-29T14:44:45.732Z,3.53
2022-08-29T14:47:13.343Z,3.53
2022-08-29T14:49:41.066Z,3.15
2022-08-29T14:52:08.679Z,3.60
2022-08-29T14:54:36.502Z,3.47
2022-08-29T14:57:05.634Z,2.92
2022-08-29T14:59:33.936Z,3.70
2022-08-29T15:02:01.659Z,3.13
2022-08-29T15:04:35.659Z,3.20
2022-08-29T15:07:06.962Z,3.50
2022-08-29T15:09:34.768Z,2.95
2022-08-29T15:12:02.838Z,3.05
2022-08-29T15:14:31.998Z,3.33
2022-08-29T15:16:59.620Z,2.80
2022-08-29T15:22:14.803Z,2.97
2022-08-29T15:24:42.520Z,3.05
2022-08-29T15:27:10.408Z,3.20
2022-08-29T15:29:40.467Z,3.22
2022-08-29T15:32:08.105Z,2.92
2022-08-29T15:34:35.783Z,2.80
2022-08-29T15:37:03.655Z,3.40
2022-08-29T15:39:31.292Z,2.92
2022-08-29T15:42:00.388Z,3.22
2022-08-29T15:44:29.016Z,2.92
2022-08-29T15:46:58.675Z,2.85
2022-08-29T15:49:26.808Z,3.00
2022-08-29T15:51:54.716Z,3.15
2022-08-29T15:54:22.426Z,2.47
2022-08-29T15:56:50.431Z,2.92
2022-08-29T15:59:18.490Z,3.10
2022-08-29T16:01:47.195Z,2.85
2022-08-29T16:04:17.891Z,3.20
2022-08-29T16:06:45.590Z,2.83
2022-08-29T16:09:15.187Z,2.92
2022-08-29T16:11:43.624Z,2.80
2022-08-29T16:14:46.814Z,3.13
2022-08-29T16:16:58.827Z,2.97
2022-08-29T16:19:27.829Z,3.00
2022-08-29T16:21:59.672Z,3.50
2022-08-29T16:24:27.943Z,3.50
2022-08-29T16:26:55.679Z,3.67
2022-08-29T16:29:26.530Z,3.97
2022-08-29T16:31:56.041Z,3.70
2022-08-29T16:34:25.598Z,3.33
2022-08-29T16:36:57.355Z,4.07
2022-08-29T16:39:25.140Z,5.07
2022-08-29T16:41:52.889Z,4.43
2022-08-29T16:44:21.358Z,4.47
2022-08-29T16:46:48.944Z,4.82
2022-08-29T16:49:16.556Z,4.40
2022-08-29T16:51:44.254Z,4.60
2022-08-29T16:54:13.392Z,4.55
2022-08-29T16:56:41.012Z,4.38
2022-08-29T16:59:09.199Z,4.93
2022-08-29T17:01:38.413Z,5.75
2022-08-29T17:04:07.533Z,5.95
2022-08-29T17:06:35.379Z,7.43
2022-08-29T17:09:06.404Z,7.70
2022-08-29T17:11:36.663Z,8.93
2022-08-29T17:14:03.130Z,6.38
2022-08-29T17:16:31.101Z,5.13
2022-08-29T17:18:58.756Z,6.93
2022-08-29T17:21:26.967Z,6.00
2022-08-29T17:23:55.215Z,6.22
2022-08-29T17:26:23.258Z,5.82
2022-08-29T17:28:52.635Z,5.53
2022-08-29T17:31:20.322Z,6.50
2022-08-29T17:33:48.043Z,5.63
2022-08-29T17:36:16.788Z,5.25
2022-08-29T17:38:45.954Z,5.20
2022-08-29T17:41:17.147Z,4.75
2022-08-29T17:43:46.540Z,5.00
2022-08-29T17:46:16.626Z,4.68
2022-08-29T17:48:44.465Z,4.25
2022-08-29T17:51:12.832Z,4.75
2022-08-29T17:53:41.916Z,4.50
2022-08-29T17:56:13.587Z,4.28
2022-08-29T17:58:41.183Z,4.65
2022-08-29T18:01:13.621Z,4.13
2022-08-29T18:03:45.464Z,4.97
2022-08-29T18:06:14.756Z,5.10
2022-08-29T18:08:48.525Z,4.82
2022-08-29T18:11:16.801Z,4.90
2022-08-29T18:13:44.755Z,4.90
2022-08-29T18:16:14.529Z,4.55
2022-08-29T18:18:42.250Z,5.38
2022-08-29T18:21:14.157Z,5.53
2022-08-29T18:23:44.243Z,4.88
2022-08-29T18:26:12.030Z,5.30
2022-08-29T18:28:40.919Z,5.18
2022-08-29T18:31:09.377Z,6.57
2022-08-29T18:33:59.579Z,5.00
2022-08-29T18:36:28.312Z,5.63
2022-08-29T18:38:55.895Z,5.82
2022-08-29T18:41:23.496Z,5.53
2022-08-29T18:43:51.790Z,5.50
2022-08-29T18:46:19.847Z,5.28
2022-08-29T18:48:47.914Z,5.72
2022-08-29T18:51:15.636Z,5.65
2022-08-29T18:53:44.680Z,6.03
2022-08-29T18:56:13.151Z,5.63
2022-08-29T18:58:44.128Z,5.57
2022-08-29T19:01:12.781Z,5.25
2022-08-29T19:03:40.567Z,5.97
2022-08-29T19:06:08.163Z,5.97
2022-08-29T19:08:36.226Z,6.60
2022-08-29T19:11:06.656Z,6.85
2022-08-29T19:13:35.516Z,6.82
2022-08-29T19:16:05.448Z,7.35
2022-08-29T19:18:33.986Z,8.05
2022-08-29T19:21:05.330Z,6.10
2022-08-29T19:23:35.284Z,5.85
2022-08-29T19:26:04.247Z,7.20
2022-08-29T19:28:33.270Z,7.00
2022-08-29T19:31:02.012Z,6.55
2022-08-29T19:33:29.611Z,6.10
2022-08-29T19:35:57.207Z,6.67
2022-08-29T19:38:24.841Z,6.77
2022-08-29T19:40:56.336Z,6.15
2022-08-29T19:43:25.020Z,6.40
2022-08-29T19:45:54.373Z,6.70
2022-08-29T19:48:22.317Z,6.43
2022-08-29T19:50:51.521Z,6.17
2022-08-29T19:53:26.958Z,6.35
2022-08-29T19:55:55.164Z,6.90
2022-08-29T19:58:25.016Z,6.93
2022-08-29T20:01:01.670Z,6.35
2022-08-29T20:03:29.548Z,6.50
2022-08-29T20:05:59.330Z,6.43
2022-08-29T20:08:27.002Z,6.50
2022-08-29T20:10:56.866Z,6.90
2022-08-29T20:13:24.404Z,6.47
2022-08-29T20:15:52.189Z,7.33
2022-08-29T20:18:22.372Z,7.17
2022-08-29T20:20:50.045Z,7.27
2022-08-29T20:23:17.789Z,7.27
2022-08-29T20:25:45.722Z,7.87
2022-08-29T20:28:15.433Z,7.60
2022-08-29T20:30:43.799Z,7.50
2022-08-29T20:33:11.696Z,7.50
2022-08-29T20:35:58.731Z,7.80
2022-08-29T20:38:27.046Z,7.90
2022-08-29T20:40:54.727Z,7.80
2022-08-29T20:43:22.320Z,8.07
2022-08-29T20:45:50.392Z,7.53
2022-08-29T20:48:18.179Z,8.23
2022-08-29T20:50:47.140Z,7.77
2022-08-29T20:53:31.745Z,8.70
2022-08-29T20:56:00.577Z,9.27
2022-08-29T20:58:29.977Z,8.23
2022-08-29T21:00:57.690Z,8.80
2022-08-29T21:03:42.862Z,8.40
2022-08-29T21:06:11.930Z,9.07
2022-08-29T21:08:40.933Z,9.63
2022-08-29T21:11:08.661Z,9.57
2022-08-29T21:13:38.824Z,9.43
2022-08-29T21:16:08.109Z,9.87
2022-08-29T21:18:36.060Z,9.63
2022-08-29T21:21:03.750Z,9.37
2022-08-29T21:23:34.091Z,10.93
2022-08-29T21:26:01.745Z,9.63
2022-08-29T21:28:32.688Z,9.00
2022-08-29T21:31:03.983Z,8.33
2022-08-29T21:33:33.332Z,8.03
2022-08-29T21:36:01.563Z,8.60
2022-08-29T21:38:29.399Z,8.60
2022-08-29T21:40:58.605Z,8.63
2022-08-29T21:43:26.210Z,8.77
2022-08-29T21:45:53.861Z,8.77
2022-08-29T21:48:21.423Z,9.00
2022-08-29T21:50:54.417Z,8.77
2022-08-29T21:53:22.039Z,8.37
2022-08-29T21:55:49.648Z,8.40
2022-08-29T21:58:19.971Z,9.00
2022-08-29T22:00:47.607Z,7.83
2022-08-29T22:03:15.582Z,8.40
2022-08-29T22:05:44.162Z,7.97
2022-08-29T22:08:14.012Z,7.70
2022-08-29T22:10:42.571Z,7.87
2022-08-29T22:13:10.191Z,7.83
2022-08-29T22:15:56.898Z,8.90
2022-08-29T22:18:24.574Z,8.27
2022-08-29T22:20:55.109Z,8.97
2022-08-29T22:23:24.315Z,8.57
2022-08-29T22:25:52.446Z,8.70
2022-08-29T22:28:20.051Z,8.03
2022-08-29T22:30:49.377Z,9.10
2022-08-29T22:33:17.055Z,8.87
2022-08-29T22:35:45.540Z,8.87
2022-08-29T22:38:13.119Z,8.20
2022-08-29T22:40:41.177Z,8.93
2022-08-29T22:43:08.856Z,9.13
2022-08-29T22:45:36.468Z,8.40
2022-08-29T22:48:06.209Z,8.77
2022-08-29T22:50:34.060Z,9.13
2022-08-29T22:53:02.036Z,9.37
2022-08-29T22:57:57.287Z,9.20
2022-08-29T23:00:25.962Z,9.77
2022-08-29T23:02:54.585Z,9.63
2022-08-29T23:05:24.096Z,9.67
2022-08-29T23:07:52.065Z,9.47
2022-08-29T23:10:21.887Z,9.30
2022-08-29T23:12:49.660Z,8.93
2022-08-29T23:15:18.487Z,9.53
2022-08-29T23:17:46.091Z,10.33
2022-08-29T23:20:14.409Z,9.60
2022-08-29T23:22:43.745Z,10.00
2022-08-29T23:25:11.976Z,9.60
2022-08-29T23:27:39.562Z,9.53
2022-08-29T23:30:08.315Z,9.37
2022-08-29T23:32:35.935Z,9.10
2022-08-29T23:35:03.568Z,9.27
2022-08-29T23:37:31.154Z,9.57
2022-08-29T23:40:00.318Z,8.90
2022-08-29T23:42:28.000Z,9.23
2022-08-29T23:44:55.587Z,9.70
2022-08-29T23:47:23.175Z,9.57
2022-08-29T23:49:50.765Z,9.10
2022-08-29T23:52:18.342Z,9.40
2022-08-29T23:54:45.911Z,9.20
2022-08-29T23:57:14.845Z,8.60
